createdAt,value
2022-09-16T00:04:33.811Z,2.80
2022-09-16T00:09:27.062Z,2.45
2022-09-16T00:14:20.145Z,2.85
2022-09-16T00:19:13.596Z,2.55
2022-09-16T00:24:08.510Z,2.85
2022-09-16T00:29:01.772Z,2.60
2022-09-16T00:33:54.876Z,2.70
2022-09-16T00:38:52.528Z,3.35
2022-09-16T00:43:51.862Z,2.72
2022-09-16T00:48:45.352Z,2.55
2022-09-16T00:53:45.664Z,2.92
2022-09-16T00:58:47.035Z,2.65
2022-09-16T01:03:46.940Z,2.58
2022-09-16T01:08:40.551Z,2.53
2022-09-16T01:13:33.745Z,2.53
2022-09-16T01:18:38.645Z,2.70
2022-09-16T01:24:11.253Z,2.60
2022-09-16T01:29:25.663Z,2.90
2022-09-16T01:34:28.473Z,2.92
2022-09-16T01:39:31.201Z,2.45
2022-09-16T01:44:30.213Z,2.65
2022-09-16T01:49:35.377Z,2.83
2022-09-16T01:54:35.171Z,2.72
2022-09-16T01:59:35.746Z,2.70
2022-09-16T02:04:36.256Z,2.58
2022-09-16T02:09:34.876Z,2.50
2022-09-16T02:14:31.410Z,2.90
2022-09-16T02:19:27.805Z,2.63
2022-09-16T02:24:23.838Z,3.10
2022-09-16T02:29:24.646Z,3.10
2022-09-16T02:34:25.954Z,2.85
2022-09-16T02:39:27.902Z,2.70
2022-09-16T02:44:25.683Z,2.45
2022-09-16T02:49:27.793Z,3.47
2022-09-16T02:54:27.298Z,2.70
2022-09-16T02:59:20.536Z,3.17
2022-09-16T03:04:16.716Z,2.65
2022-09-16T03:09:12.368Z,2.90
2022-09-16T03:14:31.106Z,3.60
2022-09-16T03:19:31.649Z,3.00
2022-09-16T03:24:37.935Z,3.50
2022-09-16T03:29:45.712Z,3.25
2022-09-16T03:34:43.799Z,3.20
2022-09-16T03:39:38.155Z,2.83
2022-09-16T03:44:37.149Z,2.97
2022-09-16T03:49:30.810Z,2.78
2022-09-16T03:54:25.503Z,2.60
2022-09-16T03:59:19.043Z,2.67
2022-09-16T04:04:16.788Z,3.35
2022-09-16T04:09:17.077Z,2.90
2022-09-16T04:14:11.176Z,2.72
2022-09-16T04:19:05.534Z,3.05
2022-09-16T04:24:03.236Z,3.05
2022-09-16T04:28:59.219Z,3.15
2022-09-16T04:33:52.380Z,2.80
2022-09-16T04:38:47.551Z,3.03
2022-09-16T04:43:42.844Z,3.15
2022-09-16T04:48:36.207Z,3.15
2022-09-16T04:53:32.164Z,2.88
2022-09-16T04:58:25.441Z,2.95
2022-09-16T05:03:20.057Z,2.78
2022-09-16T05:08:13.321Z,3.13
2022-09-16T05:13:09.650Z,2.95
2022-09-16T05:18:02.936Z,3.05
2022-09-16T05:22:57.498Z,3.05
2022-09-16T05:27:50.623Z,3.90
2022-09-16T05:32:43.947Z,3.50
2022-09-16T05:37:37.089Z,3.67
2022-09-16T05:42:32.104Z,3.33
2022-09-16T05:47:25.628Z,3.92
2022-09-16T05:52:19.060Z,3.78
2022-09-16T05:57:12.707Z,3.50
2022-09-16T06:02:07.902Z,3.70
2022-09-16T06:07:02.232Z,3.10
2022-09-16T06:12:02.372Z,3.70
2022-09-16T06:16:55.692Z,2.67
2022-09-16T06:21:52.036Z,3.03
2022-09-16T06:26:46.575Z,4.28
2022-09-16T06:31:40.300Z,3.22
2022-09-16T06:36:35.701Z,3.70
2022-09-16T06:41:32.404Z,3.80
2022-09-16T06:46:27.349Z,3.58
2022-09-16T06:51:23.185Z,3.40
2022-09-16T06:56:18.253Z,3.30
2022-09-16T07:01:15.492Z,2.95
2022-09-16T07:06:09.686Z,3.13
2022-09-16T07:11:04.991Z,3.00
2022-09-16T07:16:12.920Z,3.08
2022-09-16T07:21:10.742Z,2.60
2022-09-16T07:26:06.584Z,2.90
2022-09-16T07:31:02.561Z,2.35
2022-09-16T07:36:07.574Z,2.20
2022-09-16T07:41:08.137Z,2.65
2022-09-16T07:46:03.765Z,2.00
2022-09-16T07:50:58.254Z,1.83
2022-09-16T07:55:53.630Z,1.90
2022-09-16T08:00:49.916Z,1.90
2022-09-16T08:05:51.851Z,1.75
2022-09-16T08:10:51.509Z,1.65
2022-09-16T08:15:44.886Z,1.48
2022-09-16T08:20:39.980Z,1.50
2022-09-16T08:25:33.318Z,2.47
2022-09-16T08:30:26.580Z,1.30
2022-09-16T08:35:20.304Z,1.50
2022-09-16T08:45:28.951Z,1.50
2022-09-16T08:50:30.155Z,2.22
2022-09-16T08:55:31.789Z,2.38
2022-09-16T09:00:25.162Z,1.85
2022-09-16T09:05:25.375Z,1.80
2022-09-16T09:10:27.236Z,1.30
2022-09-16T09:15:41.024Z,1.63
2022-09-16T09:20:46.503Z,1.30
2022-09-16T09:25:50.459Z,2.00
2022-09-16T09:30:53.873Z,2.30
2022-09-16T09:36:05.857Z,2.15
2022-09-16T09:41:12.223Z,2.10
2022-09-16T09:46:16.260Z,1.92
2022-09-16T09:51:29.050Z,2.70
2022-09-16T09:56:31.789Z,2.30
2022-09-16T10:01:25.378Z,2.67
2022-09-16T10:06:23.207Z,3.33
2022-09-16T10:11:19.417Z,2.70
2022-09-16T10:16:18.467Z,3.20
2022-09-16T10:21:14.564Z,1.67
2022-09-16T10:26:26.630Z,1.63
2022-09-16T10:31:21.551Z,2.05
2022-09-16T10:36:22.541Z,1.77
2022-09-16T10:41:18.176Z,1.77
2022-09-16T10:46:16.053Z,1.63
2022-09-16T10:51:23.990Z,1.67
2022-09-16T10:56:19.861Z,2.47
2022-09-16T11:01:29.929Z,2.28
2022-09-16T11:06:37.092Z,2.10
2022-09-16T11:11:47.879Z,3.38
2022-09-16T11:16:59.804Z,2.80
2022-09-16T11:22:12.329Z,2.67
2022-09-16T11:27:20.150Z,2.20
2022-09-16T11:32:29.513Z,2.72
2022-09-16T11:37:31.498Z,2.13
2022-09-16T11:42:35.153Z,1.70
2022-09-16T11:47:55.303Z,2.40
2022-09-16T11:53:24.874Z,2.50
2022-09-16T11:58:33.461Z,2.10
2022-09-16T12:03:40.955Z,2.30
2022-09-16T12:08:44.335Z,2.45
2022-09-16T12:13:41.106Z,2.55
2022-09-16T12:18:38.704Z,2.08
2022-09-16T12:23:37.327Z,2.35
2022-09-16T12:28:35.965Z,2.10
2022-09-16T12:33:34.848Z,1.60
2022-09-16T12:38:31.163Z,2.42
2022-09-16T12:43:48.069Z,2.38
2022-09-16T12:48:59.343Z,2.03
2022-09-16T12:54:18.452Z,2.40
2022-09-16T13:04:32.537Z,2.03
2022-09-16T13:09:31.103Z,2.15
2022-09-16T13:19:44.618Z,2.25
2022-09-16T13:24:45.627Z,1.77
2022-09-16T13:29:44.842Z,2.38
2022-09-16T13:34:38.116Z,2.58
2022-09-16T13:39:34.897Z,2.60
2022-09-16T13:44:42.332Z,2.40
2022-09-16T13:49:44.594Z,2.85
2022-09-16T13:55:06.277Z,2.50
2022-09-16T14:00:15.409Z,2.35
2022-09-16T14:05:43.022Z,2.50
2022-09-16T14:10:49.222Z,2.88
2022-09-16T14:15:45.355Z,3.08
2022-09-16T14:20:38.641Z,2.50
2022-09-16T14:25:43.030Z,3.05
2022-09-16T14:30:39.352Z,2.60
2022-09-16T14:35:32.655Z,2.72
2022-09-16T14:40:29.099Z,3.45
2022-09-16T14:45:24.144Z,3.60
2022-09-16T14:50:30.289Z,2.50
2022-09-16T15:01:00.278Z,6.80
2022-09-16T15:05:56.497Z,3.42
2022-09-16T15:10:56.504Z,3.70
2022-09-16T15:15:54.576Z,3.70
2022-09-16T15:20:53.729Z,4.68
2022-09-16T15:25:54.789Z,3.15
2022-09-16T15:30:54.261Z,3.53
2022-09-16T15:36:30.089Z,3.13
2022-09-16T15:41:26.232Z,3.25
2022-09-16T15:46:25.293Z,3.35
2022-09-16T15:51:29.360Z,3.60
2022-09-16T15:56:30.231Z,2.80
2022-09-16T16:01:38.889Z,2.40
2022-09-16T16:06:52.261Z,3.20
2022-09-16T16:11:46.974Z,3.47
2022-09-16T16:16:55.489Z,3.63
2022-09-16T16:21:54.973Z,4.07
2022-09-16T16:26:52.626Z,2.97
2022-09-16T16:32:10.124Z,3.65
2022-09-16T16:37:06.341Z,4.13
2022-09-16T16:42:05.186Z,4.82
2022-09-16T16:46:58.485Z,4.25
2022-09-16T16:51:52.971Z,3.45
2022-09-16T16:56:46.889Z,3.33
2022-09-16T17:01:46.567Z,3.30
2022-09-16T17:06:41.762Z,3.45
2022-09-16T17:11:35.859Z,3.63
2022-09-16T17:16:30.884Z,3.88
2022-09-16T17:21:27.270Z,3.42
2022-09-16T17:26:21.652Z,3.92
2022-09-16T17:31:17.171Z,3.33
2022-09-16T17:36:17.339Z,3.00
2022-09-16T17:41:17.179Z,2.97
2022-09-16T17:46:22.599Z,3.17
2022-09-16T17:51:17.047Z,4.13
2022-09-16T17:56:13.699Z,3.72
2022-09-16T18:01:08.729Z,3.40
2022-09-16T18:06:11.769Z,3.13
2022-09-16T18:11:05.761Z,3.40
2022-09-16T18:16:05.491Z,3.50
2022-09-16T18:21:01.735Z,2.67
2022-09-16T18:25:55.011Z,4.18
2022-09-16T18:30:48.233Z,3.65
2022-09-16T18:35:45.808Z,3.33
2022-09-16T18:40:39.699Z,2.60
2022-09-16T18:45:33.055Z,3.60
2022-09-16T18:50:26.208Z,2.70
2022-09-16T18:55:21.259Z,2.80
2022-09-16T19:00:15.114Z,2.95
2022-09-16T19:05:10.786Z,2.70
2022-09-16T19:10:04.683Z,2.88
2022-09-16T19:15:00.170Z,3.03
2022-09-16T19:19:53.679Z,3.15
2022-09-16T19:24:47.446Z,2.90
2022-09-16T19:29:40.618Z,2.78
2022-09-16T19:34:37.596Z,3.38
2022-09-16T19:39:32.217Z,2.78
2022-09-16T19:44:25.476Z,2.60
2022-09-16T19:49:21.205Z,2.70
2022-09-16T19:54:24.221Z,3.15
2022-09-16T19:59:17.919Z,2.42
2022-09-16T20:04:11.249Z,2.45
2022-09-16T20:09:07.647Z,4.65
2022-09-16T20:14:06.762Z,3.20
2022-09-16T20:18:59.961Z,2.58
2022-09-16T20:23:57.112Z,2.83
2022-09-16T20:28:52.043Z,2.38
2022-09-16T20:33:46.681Z,2.65
2022-09-16T20:38:43.462Z,3.53
2022-09-16T20:43:59.729Z,2.58
2022-09-16T20:48:58.149Z,2.67
2022-09-16T20:53:57.559Z,2.85
2022-09-16T21:03:44.696Z,2.30
2022-09-16T21:08:39.947Z,2.55
2022-09-16T21:13:33.450Z,2.38
2022-09-16T21:18:57.502Z,3.10
2022-09-16T21:23:53.251Z,2.60
2022-09-16T21:28:49.218Z,2.80
2022-09-16T21:33:53.555Z,2.85
2022-09-16T21:39:09.204Z,2.63
2022-09-16T21:49:01.360Z,2.97
2022-09-16T21:53:56.204Z,2.50
2022-09-16T21:58:51.122Z,2.70
2022-09-16T22:03:45.799Z,2.80
2022-09-16T22:08:39.106Z,2.75
2022-09-16T22:13:34.611Z,2.85
2022-09-16T22:18:29.921Z,2.60
2022-09-16T22:23:23.190Z,3.13
2022-09-16T22:28:16.355Z,2.45
2022-09-16T22:33:10.961Z,2.78
2022-09-16T22:38:04.890Z,2.75
2022-09-16T22:43:22.098Z,3.33
2022-09-16T22:48:24.613Z,3.50
2022-09-16T22:53:20.203Z,2.60
2022-09-16T22:58:13.354Z,2.50
2022-09-16T23:03:06.421Z,3.25
2022-09-16T23:08:01.092Z,2.63
2022-09-16T23:12:54.455Z,2.90
2022-09-16T23:17:47.791Z,2.72
2022-09-16T23:22:40.934Z,2.40
2022-09-16T23:27:42.266Z,2.30
2022-09-16T23:32:35.546Z,2.10
2022-09-16T23:37:30.642Z,2.38
2022-09-16T23:42:23.888Z,2.35
2022-09-16T23:47:18.477Z,2.28
2022-09-16T23:52:11.886Z,2.25
2022-09-16T23:57:05.151Z,2.10
